sensor_id;sensor_type;location;lat;lon;timestamp;pressure;altitude;pressure_sealevel;temperature;humidity
64862;BME280;62652;42.274;-71.436;2023-09-07T00:00:00;100000.0;;;28.72222222222222;100.0
64862;BME280;62652;42.274;-71.436;2023-09-07T00:01:06;100000.0;;;28.61111111111111;100.0
64862;BME280;62652;42.274;-71.436;2023-09-07T00:02:01;100000.0;;;28.61111111111111;100.0
64862;BME280;62652;42.274;-71.436;2023-09-07T00:03:01;100010.0;;;28.61111111111111;100.0
64862;BME280;62652;42.274;-71.436;2023-09-07T00:04:00;100010.0;;;28.5;100.0
64862;BME280;62652;42.274;-71.436;2023-09-07T00:05:00;100010.0;;;28.5;100.0
64862;BME280;62652;42.274;-71.436;2023-09-07T00:06:00;100010.0;;;28.388888888888886;100.0
64862;BME280;62652;42.274;-71.436;2023-09-07T00:07:00;100010.0;;;28.388888888888886;100.0
64862;BME280;62652;42.274;-71.436;2023-09-07T00:08:01;100010.0;;;28.388888888888886;100.0
64862;BME280;62652;42.274;-71.436;2023-09-07T00:09:02;100010.0;;;28.388888888888886;100.0
64862;BME280;62652;42.274;-71.436;2023-09-07T00:10:01;100010.0;;;28.277777777777782;100.0
64862;BME280;62652;42.274;-71.436;2023-09-07T00:11:03;100020.0;;;28.277777777777782;100.0
64862;BME280;62652;42.274;-71.436;2023-09-07T00:12:01;100020.0;;;28.277777777777782;100.0
64862;BME280;62652;42.274;-71.436;2023-09-07T00:13:01;100020.0;;;28.277777777777782;100.0
64862;BME280;62652;42.274;-71.436;2023-09-07T00:14:00;100010.0;;;28.22222222222222;100.0
64862;BME280;62652;42.274;-71.436;2023-09-07T00:15:00;100010.0;;;28.111111111111107;100.0
64862;BME280;62652;42.274;-71.436;2023-09-07T00:16:01;100010.0;;;28.111111111111107;100.0
64862;BME280;62652;42.274;-71.436;2023-09-07T00:17:00;100010.0;;;28.000000000000004;100.0
64862;BME280;62652;42.274;-71.436;2023-09-07T00:18:00;100010.0;;;28.000000000000004;100.0
64862;BME280;62652;42.274;-71.436;2023-09-07T00:19:01;100010.0;;;28.000000000000004;100.0
64862;BME280;62652;42.274;-71.436;2023-09-07T00:20:00;100010.0;;;27.88888888888889;100.0
64862;BME280;62652;42.274;-71.436;2023-09-07T00:21:00;100010.0;;;27.88888888888889;100.0
64862;BME280;62652;42.274;-71.436;2023-09-07T00:22:00;100010.0;;;27.77777777777778;100.0
64862;BME280;62652;42.274;-71.436;2023-09-07T00:23:01;100020.0;;;27.77777777777778;100.0
64862;BME280;62652;42.274;-71.436;2023-09-07T00:24:00;100020.0;;;27.77777777777778;100.0
64862;BME280;62652;42.274;-71.436;2023-09-07T00:25:00;100020.0;;;27.77777777777778;100.0
64862;BME280;62652;42.274;-71.436;2023-09-07T00:26:01;100020.0;;;27.77777777777778;100.0
64862;BME280;62652;42.274;-71.436;2023-09-07T00:27:00;100020.0;;;27.77777777777778;100.0
64862;BME280;62652;42.274;-71.436;2023-09-07T00:28:01;100020.0;;;27.88888888888889;100.0
64862;BME280;62652;42.274;-71.436;2023-09-07T00:29:01;100020.0;;;27.88888888888889;100.0
64862;BME280;62652;42.274;-71.436;2023-09-07T00:30:01;100020.0;;;27.77777777777778;100.0
64862;BME280;62652;42.274;-71.436;2023-09-07T00:31:01;100020.0;;;27.88888888888889;100.0
64862;BME280;62652;42.274;-71.436;2023-09-07T00:32:01;100020.0;;;27.77777777777778;100.0
64862;BME280;62652;42.274;-71.436;2023-09-07T00:33:00;100020.0;;;27.77777777777778;100.0
64862;BME280;62652;42.274;-71.436;2023-09-07T00:34:00;100020.0;;;27.722222222222225;100.0
64862;BME280;62652;42.274;-71.436;2023-09-07T00:35:01;100020.0;;;27.722222222222225;100.0
64862;BME280;62652;42.274;-71.436;2023-09-07T00:36:01;100020.0;;;27.61111111111111;100.0
64862;BME280;62652;42.274;-71.436;2023-09-07T00:37:00;100020.0;;;27.61111111111111;100.0
64862;BME280;62652;42.274;-71.436;2023-09-07T00:38:01;100020.0;;;27.61111111111111;100.0
64862;BME280;62652;42.274;-71.436;2023-09-07T00:39:00;100020.0;;;27.5;100.0
64862;BME280;62652;42.274;-71.436;2023-09-07T00:40:01;100010.0;;;27.5;100.0
64862;BME280;62652;42.274;-71.436;2023-09-07T00:41:00;100020.0;;;27.61111111111111;100.0
64862;BME280;62652;42.274;-71.436;2023-09-07T00:42:01;100020.0;;;27.5;100.0
64862;BME280;62652;42.274;-71.436;2023-09-07T00:43:00;100010.0;;;27.38888888888889;100.0
64862;BME280;62652;42.274;-71.436;2023-09-07T00:44:01;100020.0;;;27.38888888888889;100.0
64862;BME280;62652;42.274;-71.436;2023-09-07T00:45:01;100010.0;;;27.277777777777775;100.0
64862;BME280;62652;42.274;-71.436;2023-09-07T00:46:01;100010.0;;;27.38888888888889;100.0
64862;BME280;62652;42.274;-71.436;2023-09-07T00:47:01;100020.0;;;27.277777777777775;100.0
64862;BME280;62652;42.274;-71.436;2023-09-07T00:48:00;100020.0;;;27.277777777777775;100.0
64862;BME280;62652;42.274;-71.436;2023-09-07T00:49:01;100020.0;;;27.22222222222222;100.0
64862;BME280;62652;42.274;-71.436;2023-09-07T00:50:00;100020.0;;;27.22222222222222;100.0
64862;BME280;62652;42.274;-71.436;2023-09-07T00:51:01;100020.0;;;27.22222222222222;100.0
64862;BME280;62652;42.274;-71.436;2023-09-07T00:52:01;100020.0;;;27.11111111111111;100.0
64862;BME280;62652;42.274;-71.436;2023-09-07T00:53:01;100020.0;;;27.11111111111111;100.0
64862;BME280;62652;42.274;-71.436;2023-09-07T00:54:01;100020.0;;;27.11111111111111;100.0
64862;BME280;62652;42.274;-71.436;2023-09-07T00:55:01;100020.0;;;27.11111111111111;100.0
64862;BME280;62652;42.274;-71.436;2023-09-07T00:56:01;100030.0;;;27.11111111111111;100.0
64862;BME280;62652;42.274;-71.436;2023-09-07T00:57:01;100030.0;;;27.11111111111111;100.0
64862;BME280;62652;42.274;-71.436;2023-09-07T00:58:01;100030.0;;;27.11111111111111;100.0
64862;BME280;62652;42.274;-71.436;2023-09-07T00:59:01;100030.0;;;26.999999999999996;100.0
64862;BME280;62652;42.274;-71.436;2023-09-07T01:00:01;100020.0;;;26.999999999999996;100.0
64862;BME280;62652;42.274;-71.436;2023-09-07T01:01:01;100020.0;;;26.999999999999996;100.0
64862;BME280;62652;42.274;-71.436;2023-09-07T01:02:00;100030.0;;;26.999999999999996;100.0
64862;BME280;62652;42.274;-71.436;2023-09-07T01:03:00;100030.0;;;26.999999999999996;100.0
64862;BME280;62652;42.274;-71.436;2023-09-07T01:04:01;100030.0;;;26.999999999999996;100.0
64862;BME280;62652;42.274;-71.436;2023-09-07T01:05:02;100030.0;;;26.999999999999996;100.0
64862;BME280;62652;42.274;-71.436;2023-09-07T01:06:03;100030.0;;;27.11111111111111;100.0
64862;BME280;62652;42.274;-71.436;2023-09-07T01:07:04;100030.0;;;27.11111111111111;100.0
64862;BME280;62652;42.274;-71.436;2023-09-07T01:08:10;100030.0;;;27.11111111111111;100.0
64862;BME280;62652;42.274;-71.436;2023-09-07T01:09:06;100030.0;;;26.999999999999996;100.0
64862;BME280;62652;42.274;-71.436;2023-09-07T01:10:02;100030.0;;;26.999999999999996;100.0
64862;BME280;62652;42.274;-71.436;2023-09-07T01:11:01;100030.0;;;26.888888888888893;100.0
64862;BME280;62652;42.274;-71.436;2023-09-07T01:12:01;100030.0;;;26.888888888888893;100.0
64862;BME280;62652;42.274;-71.436;2023-09-07T01:13:01;100030.0;;;26.77777777777778;100.0
64862;BME280;62652;42.274;-71.436;2023-09-07T01:14:00;100030.0;;;26.77777777777778;100.0
64862;BME280;62652;42.274;-71.436;2023-09-07T01:15:01;100020.0;;;26.77777777777778;100.0
64862;BME280;62652;42.274;-71.436;2023-09-07T01:16:00;100030.0;;;26.77777777777778;100.0
64862;BME280;62652;42.274;-71.436;2023-09-07T01:17:01;100030.0;;;26.722222222222218;100.0
64862;BME280;62652;42.274;-71.436;2023-09-07T01:18:01;100020.0;;;26.722222222222218;100.0
64862;BME280;62652;42.274;-71.436;2023-09-07T01:19:01;100030.0;;;26.722222222222218;100.0
64862;BME280;62652;42.274;-71.436;2023-09-07T01:20:04;100030.0;;;26.722222222222218;100.0
64862;BME280;62652;42.274;-71.436;2023-09-07T01:21:02;100030.0;;;26.611111111111114;100.0
64862;BME280;62652;42.274;-71.436;2023-09-07T01:22:01;100030.0;;;26.611111111111114;100.0
64862;BME280;62652;42.274;-71.436;2023-09-07T01:23:02;100030.0;;;26.611111111111114;100.0
64862;BME280;62652;42.274;-71.436;2023-09-07T01:24:01;100030.0;;;26.5;100.0
64862;BME280;62652;42.274;-71.436;2023-09-07T01:25:01;100030.0;;;26.5;100.0
64862;BME280;62652;42.274;-71.436;2023-09-07T01:26:01;100030.0;;;26.5;100.0
64862;BME280;62652;42.274;-71.436;2023-09-07T01:27:01;100030.0;;;26.5;100.0
64862;BME280;62652;42.274;-71.436;2023-09-07T01:28:01;100030.0;;;26.5;100.0
64862;BME280;62652;42.274;-71.436;2023-09-07T01:29:01;100030.0;;;26.38888888888889;100.0
64862;BME280;62652;42.274;-71.436;2023-09-07T01:30:01;100030.0;;;26.38888888888889;100.0
64862;BME280;62652;42.274;-71.436;2023-09-07T01:31:01;100030.0;;;26.38888888888889;100.0
64862;BME280;62652;42.274;-71.436;2023-09-07T01:32:00;100030.0;;;26.38888888888889;100.0
64862;BME280;62652;42.274;-71.436;2023-09-07T01:33:00;100040.0;;;26.27777777777778;100.0
64862;BME280;62652;42.274;-71.436;2023-09-07T01:34:01;100040.0;;;26.27777777777778;100.0
64862;BME280;62652;42.274;-71.436;2023-09-07T01:35:01;100040.0;;;26.27777777777778;100.0
64862;BME280;62652;42.274;-71.436;2023-09-07T01:36:00;100040.0;;;26.27777777777778;100.0
64862;BME280;62652;42.274;-71.436;2023-09-07T01:37:01;100040.0;;;26.22222222222222;100.0
64862;BME280;62652;42.274;-71.436;2023-09-07T01:38:00;100040.0;;;26.22222222222222;100.0
64862;BME280;62652;42.274;-71.436;2023-09-07T01:39:01;100040.0;;;26.22222222222222;100.0
64862;BME280;62652;42.274;-71.436;2023-09-07T01:40:00;100040.0;;;26.22222222222222;100.0
64862;BME280;62652;42.274;-71.436;2023-09-07T01:41:01;100040.0;;;26.11111111111111;100.0
64862;BME280;62652;42.274;-71.436;2023-09-07T01:42:01;100040.0;;;26.11111111111111;100.0
64862;BME280;62652;42.274;-71.436;2023-09-07T01:43:00;100040.0;;;26.11111111111111;100.0
64862;BME280;62652;42.274;-71.436;2023-09-07T01:44:00;100040.0;;;26.11111111111111;100.0
64862;BME280;62652;42.274;-71.436;2023-09-07T01:45:01;100040.0;;;26.11111111111111;100.0
64862;BME280;62652;42.274;-71.436;2023-09-07T01:46:01;100040.0;;;26.0;100.0
64862;BME280;62652;42.274;-71.436;2023-09-07T01:47:01;100040.0;;;26.11111111111111;100.0
64862;BME280;62652;42.274;-71.436;2023-09-07T01:48:01;100030.0;;;26.11111111111111;100.0
64862;BME280;62652;42.274;-71.436;2023-09-07T01:49:00;100040.0;;;26.11111111111111;100.0
64862;BME280;62652;42.274;-71.436;2023-09-07T01:50:00;100040.0;;;26.11111111111111;100.0
64862;BME280;62652;42.274;-71.436;2023-09-07T01:51:01;100040.0;;;26.11111111111111;100.0
64862;BME280;62652;42.274;-71.436;2023-09-07T01:52:01;100040.0;;;26.11111111111111;100.0
64862;BME280;62652;42.274;-71.436;2023-09-07T01:53:00;100040.0;;;26.0;100.0
64862;BME280;62652;42.274;-71.436;2023-09-07T01:54:01;100040.0;;;26.0;100.0
64862;BME280;62652;42.274;-71.436;2023-09-07T01:55:00;100040.0;;;26.0;100.0
64862;BME280;62652;42.274;-71.436;2023-09-07T01:56:00;100040.0;;;26.0;100.0
64862;BME280;62652;42.274;-71.436;2023-09-07T01:57:01;100030.0;;;26.0;100.0
64862;BME280;62652;42.274;-71.436;2023-09-07T01:58:00;100030.0;;;26.11111111111111;100.0
64862;BME280;62652;42.274;-71.436;2023-09-07T01:59:01;100040.0;;;26.0;100.0
64862;BME280;62652;42.274;-71.436;2023-09-07T02:00:00;100040.0;;;25.888888888888886;100.0
64862;BME280;62652;42.274;-71.436;2023-09-07T02:01:00;100040.0;;;26.0;100.0
64862;BME280;62652;42.274;-71.436;2023-09-07T02:02:01;100030.0;;;26.0;100.0
64862;BME280;62652;42.274;-71.436;2023-09-07T02:03:01;100040.0;;;26.0;100.0
64862;BME280;62652;42.274;-71.436;2023-09-07T02:04:00;100040.0;;;26.0;100.0
64862;BME280;62652;42.274;-71.436;2023-09-07T02:05:00;100040.0;;;26.0;100.0
64862;BME280;62652;42.274;-71.436;2023-09-07T02:06:01;100040.0;;;26.0;100.0
64862;BME280;62652;42.274;-71.436;2023-09-07T02:07:01;100040.0;;;26.11111111111111;100.0
64862;BME280;62652;42.274;-71.436;2023-09-07T02:08:00;100040.0;;;26.0;100.0
64862;BME280;62652;42.274;-71.436;2023-09-07T02:09:01;100040.0;;;26.11111111111111;100.0
64862;BME280;62652;42.274;-71.436;2023-09-07T02:10:01;100040.0;;;26.0;100.0
64862;BME280;62652;42.274;-71.436;2023-09-07T02:11:01;100040.0;;;25.888888888888886;100.0
64862;BME280;62652;42.274;-71.436;2023-09-07T02:12:00;100040.0;;;25.888888888888886;100.0
64862;BME280;62652;42.274;-71.436;2023-09-07T02:13:00;100040.0;;;25.888888888888886;100.0
64862;BME280;62652;42.274;-71.436;2023-09-07T02:14:00;100040.0;;;25.777777777777782;100.0
64862;BME280;62652;42.274;-71.436;2023-09-07T02:15:03;100040.0;;;25.777777777777782;100.0
64862;BME280;62652;42.274;-71.436;2023-09-07T02:16:03;100040.0;;;25.777777777777782;100.0
64862;BME280;62652;42.274;-71.436;2023-09-07T02:17:00;100040.0;;;25.72222222222222;100.0
64862;BME280;62652;42.274;-71.436;2023-09-07T02:18:01;100040.0;;;25.72222222222222;100.0
64862;BME280;62652;42.274;-71.436;2023-09-07T02:19:01;100040.0;;;25.611111111111107;100.0
64862;BME280;62652;42.274;-71.436;2023-09-07T02:20:00;100040.0;;;25.611111111111107;100.0
64862;BME280;62652;42.274;-71.436;2023-09-07T02:21:02;100040.0;;;25.500000000000004;100.0
64862;BME280;62652;42.274;-71.436;2023-09-07T02:22:01;100040.0;;;25.500000000000004;100.0
64862;BME280;62652;42.274;-71.436;2023-09-07T02:23:01;100040.0;;;25.611111111111107;100.0
64862;BME280;62652;42.274;-71.436;2023-09-07T02:24:01;100040.0;;;25.611111111111107;100.0
64862;BME280;62652;42.274;-71.436;2023-09-07T02:25:00;100040.0;;;25.72222222222222;100.0
64862;BME280;62652;42.274;-71.436;2023-09-07T02:26:01;100040.0;;;25.611111111111107;100.0
64862;BME280;62652;42.274;-71.436;2023-09-07T02:27:01;100040.0;;;25.72222222222222;100.0
64862;BME280;62652;42.274;-71.436;2023-09-07T02:28:00;100050.0;;;25.72222222222222;100.0
64862;BME280;62652;42.274;-71.436;2023-09-07T02:29:00;100040.0;;;25.72222222222222;100.0
64862;BME280;62652;42.274;-71.436;2023-09-07T02:30:00;100050.0;;;25.611111111111107;100.0
64862;BME280;62652;42.274;-71.436;2023-09-07T02:31:03;100040.0;;;25.611111111111107;100.0
64862;BME280;62652;42.274;-71.436;2023-09-07T02:32:01;100040.0;;;25.500000000000004;100.0
64862;BME280;62652;42.274;-71.436;2023-09-07T02:33:00;100040.0;;;25.500000000000004;100.0
64862;BME280;62652;42.274;-71.436;2023-09-07T02:34:01;100040.0;;;25.500000000000004;100.0
64862;BME280;62652;42.274;-71.436;2023-09-07T02:35:00;100040.0;;;25.500000000000004;100.0
64862;BME280;62652;42.274;-71.436;2023-09-07T02:36:01;100040.0;;;25.500000000000004;100.0
64862;BME280;62652;42.274;-71.436;2023-09-07T02:37:00;100040.0;;;25.500000000000004;100.0
64862;BME280;62652;42.274;-71.436;2023-09-07T02:38:01;100040.0;;;25.500000000000004;100.0
64862;BME280;62652;42.274;-71.436;2023-09-07T02:39:00;100040.0;;;25.500000000000004;100.0
64862;BME280;62652;42.274;-71.436;2023-09-07T02:40:01;100040.0;;;25.500000000000004;100.0
64862;BME280;62652;42.274;-71.436;2023-09-07T02:41:01;100040.0;;;25.500000000000004;100.0
64862;BME280;62652;42.274;-71.436;2023-09-07T02:42:00;100040.0;;;25.500000000000004;100.0
64862;BME280;62652;42.274;-71.436;2023-09-07T02:43:00;100040.0;;;25.38888888888889;100.0
64862;BME280;62652;42.274;-71.436;2023-09-07T02:44:01;100050.0;;;25.500000000000004;100.0
64862;BME280;62652;42.274;-71.436;2023-09-07T02:45:01;100050.0;;;25.500000000000004;100.0
64862;BME280;62652;42.274;-71.436;2023-09-07T02:46:01;100050.0;;;25.611111111111107;100.0
64862;BME280;62652;42.274;-71.436;2023-09-07T02:47:00;100050.0;;;25.611111111111107;100.0
64862;BME280;62652;42.274;-71.436;2023-09-07T02:48:01;100050.0;;;25.611111111111107;100.0
64862;BME280;62652;42.274;-71.436;2023-09-07T02:49:00;100050.0;;;25.72222222222222;100.0
64862;BME280;62652;42.274;-71.436;2023-09-07T02:50:00;100050.0;;;25.72222222222222;100.0
64862;BME280;62652;42.274;-71.436;2023-09-07T02:51:01;100050.0;;;25.72222222222222;100.0
64862;BME280;62652;42.274;-71.436;2023-09-07T02:52:00;100050.0;;;25.777777777777782;100.0
64862;BME280;62652;42.274;-71.436;2023-09-07T02:53:01;100050.0;;;25.777777777777782;100.0
64862;BME280;62652;42.274;-71.436;2023-09-07T02:54:01;100040.0;;;25.72222222222222;100.0
64862;BME280;62652;42.274;-71.436;2023-09-07T02:55:00;100050.0;;;25.72222222222222;100.0
64862;BME280;62652;42.274;-71.436;2023-09-07T02:56:01;100050.0;;;25.611111111111107;100.0
64862;BME280;62652;42.274;-71.436;2023-09-07T02:57:01;100050.0;;;25.72222222222222;100.0
64862;BME280;62652;42.274;-71.436;2023-09-07T02:58:02;100050.0;;;25.611111111111107;100.0
64862;BME280;62652;42.274;-71.436;2023-09-07T02:59:00;100040.0;;;25.611111111111107;100.0
64862;BME280;62652;42.274;-71.436;2023-09-07T03:00:01;100040.0;;;25.611111111111107;100.0
64862;BME280;62652;42.274;-71.436;2023-09-07T03:01:05;100040.0;;;25.500000000000004;100.0
64862;BME280;62652;42.274;-71.436;2023-09-07T03:02:00;100040.0;;;25.500000000000004;100.0
64862;BME280;62652;42.274;-71.436;2023-09-07T03:03:02;100040.0;;;25.38888888888889;100.0
64862;BME280;62652;42.274;-71.436;2023-09-07T03:04:01;100040.0;;;25.500000000000004;100.0
64862;BME280;62652;42.274;-71.436;2023-09-07T03:05:01;100050.0;;;25.500000000000004;100.0
64862;BME280;62652;42.274;-71.436;2023-09-07T03:06:08;100040.0;;;25.500000000000004;100.0
64862;BME280;62652;42.274;-71.436;2023-09-07T03:07:01;100050.0;;;25.38888888888889;100.0
64862;BME280;62652;42.274;-71.436;2023-09-07T03:08:01;100040.0;;;25.38888888888889;100.0
64862;BME280;62652;42.274;-71.436;2023-09-07T03:09:00;100040.0;;;25.38888888888889;100.0
64862;BME280;62652;42.274;-71.436;2023-09-07T03:10:01;100050.0;;;25.38888888888889;100.0
64862;BME280;62652;42.274;-71.436;2023-09-07T03:11:03;100050.0;;;25.38888888888889;100.0
64862;BME280;62652;42.274;-71.436;2023-09-07T03:12:01;100050.0;;;25.38888888888889;100.0
64862;BME280;62652;42.274;-71.436;2023-09-07T03:13:01;100050.0;;;25.38888888888889;100.0
64862;BME280;62652;42.274;-71.436;2023-09-07T03:14:00;100040.0;;;25.38888888888889;100.0
64862;BME280;62652;42.274;-71.436;2023-09-07T03:15:01;100040.0;;;25.38888888888889;100.0
64862;BME280;62652;42.274;-71.436;2023-09-07T03:16:01;100040.0;;;25.27777777777778;100.0
64862;BME280;62652;42.274;-71.436;2023-09-07T03:17:01;100040.0;;;25.38888888888889;100.0
64862;BME280;62652;42.274;-71.436;2023-09-07T03:18:00;100040.0;;;25.38888888888889;100.0
64862;BME280;62652;42.274;-71.436;2023-09-07T03:19:00;100040.0;;;25.38888888888889;100.0
64862;BME280;62652;42.274;-71.436;2023-09-07T03:20:01;100040.0;;;25.38888888888889;100.0
64862;BME280;62652;42.274;-71.436;2023-09-07T03:21:01;100030.0;;;25.38888888888889;100.0
64862;BME280;62652;42.274;-71.436;2023-09-07T03:22:01;100040.0;;;25.500000000000004;100.0
64862;BME280;62652;42.274;-71.436;2023-09-07T03:23:01;100040.0;;;25.500000000000004;100.0
64862;BME280;62652;42.274;-71.436;2023-09-07T03:24:01;100040.0;;;25.38888888888889;100.0
64862;BME280;62652;42.274;-71.436;2023-09-07T03:25:00;100030.0;;;25.38888888888889;100.0
64862;BME280;62652;42.274;-71.436;2023-09-07T03:26:01;100040.0;;;25.38888888888889;100.0
64862;BME280;62652;42.274;-71.436;2023-09-07T03:27:01;100030.0;;;25.38888888888889;100.0
64862;BME280;62652;42.274;-71.436;2023-09-07T03:28:00;100040.0;;;25.38888888888889;100.0
64862;BME280;62652;42.274;-71.436;2023-09-07T03:29:01;100030.0;;;25.38888888888889;100.0
64862;BME280;62652;42.274;-71.436;2023-09-07T03:30:00;100040.0;;;25.38888888888889;100.0
64862;BME280;62652;42.274;-71.436;2023-09-07T03:31:00;100030.0;;;25.38888888888889;100.0
64862;BME280;62652;42.274;-71.436;2023-09-07T03:32:01;100040.0;;;25.38888888888889;100.0
64862;BME280;62652;42.274;-71.436;2023-09-07T03:33:01;100040.0;;;25.38888888888889;100.0
64862;BME280;62652;42.274;-71.436;2023-09-07T03:34:01;100040.0;;;25.27777777777778;100.0
64862;BME280;62652;42.274;-71.436;2023-09-07T03:35:01;100040.0;;;25.27777777777778;100.0
64862;BME280;62652;42.274;-71.436;2023-09-07T03:36:00;100030.0;;;25.222222222222225;100.0
64862;BME280;62652;42.274;-71.436;2023-09-07T03:37:00;100030.0;;;25.27777777777778;100.0
64862;BME280;62652;42.274;-71.436;2023-09-07T03:38:00;100030.0;;;25.222222222222225;100.0
64862;BME280;62652;42.274;-71.436;2023-09-07T03:39:00;100030.0;;;25.222222222222225;100.0
64862;BME280;62652;42.274;-71.436;2023-09-07T03:40:01;100030.0;;;25.222222222222225;100.0
64862;BME280;62652;42.274;-71.436;2023-09-07T03:41:01;100030.0;;;25.222222222222225;100.0
64862;BME280;62652;42.274;-71.436;2023-09-07T03:42:00;100030.0;;;25.11111111111111;100.0
64862;BME280;62652;42.274;-71.436;2023-09-07T03:43:00;100030.0;;;25.11111111111111;100.0
64862;BME280;62652;42.274;-71.436;2023-09-07T03:44:00;100020.0;;;25.11111111111111;100.0
64862;BME280;62652;42.274;-71.436;2023-09-07T03:45:00;100020.0;;;25.11111111111111;100.0
64862;BME280;62652;42.274;-71.436;2023-09-07T03:46:01;100020.0;;;25.11111111111111;100.0
64862;BME280;62652;42.274;-71.436;2023-09-07T03:47:01;100020.0;;;25.0;100.0
64862;BME280;62652;42.274;-71.436;2023-09-07T03:48:01;100020.0;;;25.0;100.0
64862;BME280;62652;42.274;-71.436;2023-09-07T03:49:00;100030.0;;;25.0;100.0
64862;BME280;62652;42.274;-71.436;2023-09-07T03:50:01;100030.0;;;25.0;100.0
64862;BME280;62652;42.274;-71.436;2023-09-07T03:51:01;100030.0;;;25.0;100.0
64862;BME280;62652;42.274;-71.436;2023-09-07T03:52:01;100030.0;;;25.0;100.0
64862;BME280;62652;42.274;-71.436;2023-09-07T03:53:00;100030.0;;;24.88888888888889;100.0
64862;BME280;62652;42.274;-71.436;2023-09-07T03:54:01;100030.0;;;24.777777777777775;100.0
64862;BME280;62652;42.274;-71.436;2023-09-07T03:55:01;100030.0;;;24.88888888888889;100.0
64862;BME280;62652;42.274;-71.436;2023-09-07T03:56:02;100030.0;;;24.777777777777775;100.0
64862;BME280;62652;42.274;-71.436;2023-09-07T03:57:01;100030.0;;;24.777777777777775;100.0
64862;BME280;62652;42.274;-71.436;2023-09-07T03:58:00;100030.0;;;24.777777777777775;100.0
64862;BME280;62652;42.274;-71.436;2023-09-07T03:59:01;100030.0;;;24.777777777777775;100.0
64862;BME280;62652;42.274;-71.436;2023-09-07T04:00:01;100030.0;;;24.777777777777775;100.0
64862;BME280;62652;42.274;-71.436;2023-09-07T04:01:01;100030.0;;;24.72222222222222;100.0
64862;BME280;62652;42.274;-71.436;2023-09-07T04:02:01;100030.0;;;24.72222222222222;100.0
64862;BME280;62652;42.274;-71.436;2023-09-07T04:03:00;100030.0;;;24.777777777777775;100.0
64862;BME280;62652;42.274;-71.436;2023-09-07T04:04:01;100030.0;;;24.777777777777775;100.0
64862;BME280;62652;42.274;-71.436;2023-09-07T04:05:01;100030.0;;;24.72222222222222;100.0
64862;BME280;62652;42.274;-71.436;2023-09-07T04:06:01;100030.0;;;24.72222222222222;100.0
64862;BME280;62652;42.274;-71.436;2023-09-07T04:07:00;100030.0;;;24.72222222222222;100.0
64862;BME280;62652;42.274;-71.436;2023-09-07T04:08:00;100030.0;;;24.61111111111111;100.0
64862;BME280;62652;42.274;-71.436;2023-09-07T04:09:01;100030.0;;;24.61111111111111;100.0
64862;BME280;62652;42.274;-71.436;2023-09-07T04:10:01;100020.0;;;24.61111111111111;100.0
64862;BME280;62652;42.274;-71.436;2023-09-07T04:11:03;100030.0;;;24.61111111111111;100.0
64862;BME280;62652;42.274;-71.436;2023-09-07T04:12:01;100030.0;;;24.72222222222222;100.0
64862;BME280;62652;42.274;-71.436;2023-09-07T04:13:00;100020.0;;;24.61111111111111;100.0
64862;BME280;62652;42.274;-71.436;2023-09-07T04:14:01;100020.0;;;24.61111111111111;100.0
64862;BME280;62652;42.274;-71.436;2023-09-07T04:15:01;100020.0;;;24.61111111111111;100.0
64862;BME280;62652;42.274;-71.436;2023-09-07T04:16:01;100020.0;;;24.61111111111111;100.0
64862;BME280;62652;42.274;-71.436;2023-09-07T04:17:01;100030.0;;;24.61111111111111;100.0
64862;BME280;62652;42.274;-71.436;2023-09-07T04:18:01;100020.0;;;24.61111111111111;100.0
64862;BME280;62652;42.274;-71.436;2023-09-07T04:19:00;100020.0;;;24.61111111111111;100.0
64862;BME280;62652;42.274;-71.436;2023-09-07T04:20:00;100020.0;;;24.61111111111111;100.0
64862;BME280;62652;42.274;-71.436;2023-09-07T04:21:08;100020.0;;;24.61111111111111;100.0
64862;BME280;62652;42.274;-71.436;2023-09-07T04:22:01;100020.0;;;24.61111111111111;100.0
64862;BME280;62652;42.274;-71.436;2023-09-07T04:23:01;100020.0;;;24.61111111111111;100.0
64862;BME280;62652;42.274;-71.436;2023-09-07T04:24:01;100020.0;;;24.499999999999996;100.0
64862;BME280;62652;42.274;-71.436;2023-09-07T04:25:00;100020.0;;;24.499999999999996;100.0
64862;BME280;62652;42.274;-71.436;2023-09-07T04:26:06;100020.0;;;24.499999999999996;100.0
64862;BME280;62652;42.274;-71.436;2023-09-07T04:27:01;100020.0;;;24.499999999999996;100.0
64862;BME280;62652;42.274;-71.436;2023-09-07T04:28:01;100020.0;;;24.499999999999996;100.0
64862;BME280;62652;42.274;-71.436;2023-09-07T04:29:01;100020.0;;;24.499999999999996;100.0
64862;BME280;62652;42.274;-71.436;2023-09-07T04:30:01;100030.0;;;24.499999999999996;100.0